Airport ID:KO69
Update Time (UTC):27/06/2019 04:57
Wind Speed (Knots):9
Wind Direction (Magnetic):270
Temperature (°C):13
Dew Point (°C):13
Humidity (%):100
Altimeter (inHg):30.05
Density Altitude (Feet):
Visibility (Miles):6
Clouds (Hundreds of feet):OVC007
Present Weather:BR
METAR:METAR KO69 270455Z AUTO 30007KT 8SM OVC007 13/13 A3005 RMK A01

The data displayed is for advisory purposes only and is not to be used for flight planning or operations.

This page is not automatically refreshed. Reload the page to see current data.